sensor_id;sensor_type;location;lat;lon;timestamp;temperature;humidity
63383;DHT22;49512;48.744;9.176;2023-03-05T00:01:11;12.10;99.90
63383;DHT22;49512;48.744;9.176;2023-03-05T00:03:37;12.10;99.90
63383;DHT22;49512;48.744;9.176;2023-03-05T00:06:02;12.10;99.90
63383;DHT22;49512;48.744;9.176;2023-03-05T00:08:28;12.10;99.90
63383;DHT22;49512;48.744;9.176;2023-03-05T00:11:04;12.10;99.90
63383;DHT22;49512;48.744;9.176;2023-03-05T00:13:29;12.10;99.90
63383;DHT22;49512;48.744;9.176;2023-03-05T00:15:55;12.10;99.90
63383;DHT22;49512;48.744;9.176;2023-03-05T00:18:21;12.10;99.90
63383;DHT22;49512;48.744;9.176;2023-03-05T00:20:46;12.00;99.90
63383;DHT22;49512;48.744;9.176;2023-03-05T00:23:12;12.10;99.90
63383;DHT22;49512;48.744;9.176;2023-03-05T00:25:38;12.10;99.90
63383;DHT22;49512;48.744;9.176;2023-03-05T00:28:05;12.00;99.90
63383;DHT22;49512;48.744;9.176;2023-03-05T00:30:31;12.00;99.90
63383;DHT22;49512;48.744;9.176;2023-03-05T00:32:57;12.00;99.90
63383;DHT22;49512;48.744;9.176;2023-03-05T00:35:22;12.00;99.90
63383;DHT22;49512;48.744;9.176;2023-03-05T00:37:48;12.00;99.90
63383;DHT22;49512;48.744;9.176;2023-03-05T00:40:13;12.00;99.90
63383;DHT22;49512;48.744;9.176;2023-03-05T00:42:39;12.10;99.90
63383;DHT22;49512;48.744;9.176;2023-03-05T00:45:05;12.00;99.90
63383;DHT22;49512;48.744;9.176;2023-03-05T00:47:31;12.00;99.90
63383;DHT22;49512;48.744;9.176;2023-03-05T00:49:56;12.00;99.90
63383;DHT22;49512;48.744;9.176;2023-03-05T00:52:22;12.00;99.90
63383;DHT22;49512;48.744;9.176;2023-03-05T00:54:47;12.10;99.90
63383;DHT22;49512;48.744;9.176;2023-03-05T00:57:13;12.10;99.90
63383;DHT22;49512;48.744;9.176;2023-03-05T00:59:38;12.00;99.90
63383;DHT22;49512;48.744;9.176;2023-03-05T01:02:04;12.00;99.90
63383;DHT22;49512;48.744;9.176;2023-03-05T01:04:29;12.00;99.90
63383;DHT22;49512;48.744;9.176;2023-03-05T01:06:55;12.00;99.90
63383;DHT22;49512;48.744;9.176;2023-03-05T01:09:20;11.90;99.90
63383;DHT22;49512;48.744;9.176;2023-03-05T01:11:46;12.00;99.90
63383;DHT22;49512;48.744;9.176;2023-03-05T01:14:11;12.00;99.90
63383;DHT22;49512;48.744;9.176;2023-03-05T01:16:37;12.00;99.90
63383;DHT22;49512;48.744;9.176;2023-03-05T01:19:02;12.00;99.90
63383;DHT22;49512;48.744;9.176;2023-03-05T01:21:28;11.90;99.90
63383;DHT22;49512;48.744;9.176;2023-03-05T01:23:53;11.90;99.90
63383;DHT22;49512;48.744;9.176;2023-03-05T01:26:19;12.00;99.90
63383;DHT22;49512;48.744;9.176;2023-03-05T01:28:44;11.90;99.90
63383;DHT22;49512;48.744;9.176;2023-03-05T01:31:10;11.90;99.90
63383;DHT22;49512;48.744;9.176;2023-03-05T01:33:36;12.00;99.90
63383;DHT22;49512;48.744;9.176;2023-03-05T01:36:01;12.00;99.90
63383;DHT22;49512;48.744;9.176;2023-03-05T01:38:27;12.00;99.90
63383;DHT22;49512;48.744;9.176;2023-03-05T01:40:52;12.00;99.90
63383;DHT22;49512;48.744;9.176;2023-03-05T01:43:20;12.00;99.90
63383;DHT22;49512;48.744;9.176;2023-03-05T01:48:31;11.90;99.90
63383;DHT22;49512;48.744;9.176;2023-03-05T01:50:56;12.00;99.90
63383;DHT22;49512;48.744;9.176;2023-03-05T01:53:22;12.00;99.90
63383;DHT22;49512;48.744;9.176;2023-03-05T01:55:48;11.90;99.90
63383;DHT22;49512;48.744;9.176;2023-03-05T01:58:13;11.90;99.90
63383;DHT22;49512;48.744;9.176;2023-03-05T02:00:42;11.90;99.90
63383;DHT22;49512;48.744;9.176;2023-03-05T02:03:10;11.90;99.90
63383;DHT22;49512;48.744;9.176;2023-03-05T02:05:37;11.90;99.90
63383;DHT22;49512;48.744;9.176;2023-03-05T02:08:07;11.90;99.90
63383;DHT22;49512;48.744;9.176;2023-03-05T02:10:37;12.00;99.90
63383;DHT22;49512;48.744;9.176;2023-03-05T02:13:11;12.00;99.90
63383;DHT22;49512;48.744;9.176;2023-03-05T02:15:37;11.90;99.90
63383;DHT22;49512;48.744;9.176;2023-03-05T02:18:03;12.00;99.90
63383;DHT22;49512;48.744;9.176;2023-03-05T02:20:30;11.90;99.90
63383;DHT22;49512;48.744;9.176;2023-03-05T02:23:06;11.90;99.90
63383;DHT22;49512;48.744;9.176;2023-03-05T02:25:31;11.90;99.90
63383;DHT22;49512;48.744;9.176;2023-03-05T02:27:58;12.00;99.90
63383;DHT22;49512;48.744;9.176;2023-03-05T02:30:26;11.90;99.90
63383;DHT22;49512;48.744;9.176;2023-03-05T02:32:51;11.90;99.90
63383;DHT22;49512;48.744;9.176;2023-03-05T02:35:17;11.90;99.90
63383;DHT22;49512;48.744;9.176;2023-03-05T02:37:42;12.00;99.90
63383;DHT22;49512;48.744;9.176;2023-03-05T02:40:09;11.90;99.90
63383;DHT22;49512;48.744;9.176;2023-03-05T02:42:35;11.90;99.90
63383;DHT22;49512;48.744;9.176;2023-03-05T02:45:00;11.90;99.90
63383;DHT22;49512;48.744;9.176;2023-03-05T02:47:26;12.00;99.90
63383;DHT22;49512;48.744;9.176;2023-03-05T02:49:52;11.90;99.90
63383;DHT22;49512;48.744;9.176;2023-03-05T02:52:17;12.00;99.90
63383;DHT22;49512;48.744;9.176;2023-03-05T02:54:43;11.90;99.90
63383;DHT22;49512;48.744;9.176;2023-03-05T02:57:08;11.90;99.90
63383;DHT22;49512;48.744;9.176;2023-03-05T02:59:34;11.90;99.90
63383;DHT22;49512;48.744;9.176;2023-03-05T03:01:59;11.90;99.90
63383;DHT22;49512;48.744;9.176;2023-03-05T03:04:28;11.90;99.90
63383;DHT22;49512;48.744;9.176;2023-03-05T03:06:53;12.00;99.90
63383;DHT22;49512;48.744;9.176;2023-03-05T03:09:19;11.90;99.90
63383;DHT22;49512;48.744;9.176;2023-03-05T03:11:45;11.90;99.90
63383;DHT22;49512;48.744;9.176;2023-03-05T03:14:10;11.90;99.90
63383;DHT22;49512;48.744;9.176;2023-03-05T03:16:36;11.90;99.90
63383;DHT22;49512;48.744;9.176;2023-03-05T03:19:01;11.90;99.90
63383;DHT22;49512;48.744;9.176;2023-03-05T03:21:26;11.90;99.90
63383;DHT22;49512;48.744;9.176;2023-03-05T03:23:52;11.90;99.90
63383;DHT22;49512;48.744;9.176;2023-03-05T03:26:18;11.90;99.90
63383;DHT22;49512;48.744;9.176;2023-03-05T03:28:43;11.90;99.90
63383;DHT22;49512;48.744;9.176;2023-03-05T03:31:09;11.90;99.90
63383;DHT22;49512;48.744;9.176;2023-03-05T03:33:34;11.90;99.90
63383;DHT22;49512;48.744;9.176;2023-03-05T03:36:00;11.90;99.90
63383;DHT22;49512;48.744;9.176;2023-03-05T03:38:26;11.90;99.90
63383;DHT22;49512;48.744;9.176;2023-03-05T03:40:51;11.90;99.90
63383;DHT22;49512;48.744;9.176;2023-03-05T03:43:17;11.90;99.90
63383;DHT22;49512;48.744;9.176;2023-03-05T03:45:42;11.90;99.90
63383;DHT22;49512;48.744;9.176;2023-03-05T03:48:08;11.90;99.90
63383;DHT22;49512;48.744;9.176;2023-03-05T03:50:36;11.80;99.90
63383;DHT22;49512;48.744;9.176;2023-03-05T03:53:02;11.90;99.90
63383;DHT22;49512;48.744;9.176;2023-03-05T03:55:27;11.90;99.90
63383;DHT22;49512;48.744;9.176;2023-03-05T03:57:53;11.90;99.90
63383;DHT22;49512;48.744;9.176;2023-03-05T04:00:18;11.90;99.90
63383;DHT22;49512;48.744;9.176;2023-03-05T04:02:44;11.90;99.90
63383;DHT22;49512;48.744;9.176;2023-03-05T04:05:09;11.70;99.90
63383;DHT22;49512;48.744;9.176;2023-03-05T04:07:35;11.90;99.90
63383;DHT22;49512;48.744;9.176;2023-03-05T04:10:01;11.90;99.90
63383;DHT22;49512;48.744;9.176;2023-03-05T04:12:26;11.90;99.90
63383;DHT22;49512;48.744;9.176;2023-03-05T04:14:51;11.80;99.90
63383;DHT22;49512;48.744;9.176;2023-03-05T04:17:17;11.90;99.90
63383;DHT22;49512;48.744;9.176;2023-03-05T04:19:42;11.90;99.90
63383;DHT22;49512;48.744;9.176;2023-03-05T04:22:12;11.90;99.90
63383;DHT22;49512;48.744;9.176;2023-03-05T04:24:38;11.90;99.90
63383;DHT22;49512;48.744;9.176;2023-03-05T04:27:04;11.90;99.90
63383;DHT22;49512;48.744;9.176;2023-03-05T04:29:29;11.90;99.90
63383;DHT22;49512;48.744;9.176;2023-03-05T04:31:55;11.80;99.90
63383;DHT22;49512;48.744;9.176;2023-03-05T04:34:20;11.90;99.90
63383;DHT22;49512;48.744;9.176;2023-03-05T04:36:46;11.90;99.90
63383;DHT22;49512;48.744;9.176;2023-03-05T04:39:11;11.90;99.90
63383;DHT22;49512;48.744;9.176;2023-03-05T04:41:37;11.90;99.90
63383;DHT22;49512;48.744;9.176;2023-03-05T04:44:02;11.90;99.90
63383;DHT22;49512;48.744;9.176;2023-03-05T04:46:28;11.90;99.90
63383;DHT22;49512;48.744;9.176;2023-03-05T04:48:53;11.90;99.90
63383;DHT22;49512;48.744;9.176;2023-03-05T04:51:19;11.90;99.90
63383;DHT22;49512;48.744;9.176;2023-03-05T04:53:44;11.90;99.90
63383;DHT22;49512;48.744;9.176;2023-03-05T04:56:10;11.90;99.90
63383;DHT22;49512;48.744;9.176;2023-03-05T04:58:35;11.90;99.90
63383;DHT22;49512;48.744;9.176;2023-03-05T05:01:01;11.90;99.90
63383;DHT22;49512;48.744;9.176;2023-03-05T05:03:27;11.80;99.90
63383;DHT22;49512;48.744;9.176;2023-03-05T05:05:54;11.80;99.90
63383;DHT22;49512;48.744;9.176;2023-03-05T05:08:20;11.90;99.90
63383;DHT22;49512;48.744;9.176;2023-03-05T05:10:53;11.80;99.90
63383;DHT22;49512;48.744;9.176;2023-03-05T05:13:19;11.90;99.90
63383;DHT22;49512;48.744;9.176;2023-03-05T05:15:44;11.80;99.90
63383;DHT22;49512;48.744;9.176;2023-03-05T05:18:10;11.90;99.80
63383;DHT22;49512;48.744;9.176;2023-03-05T05:20:35;11.80;99.90
63383;DHT22;49512;48.744;9.176;2023-03-05T05:23:01;11.90;99.90
63383;DHT22;49512;48.744;9.176;2023-03-05T05:25:26;11.80;99.80
63383;DHT22;49512;48.744;9.176;2023-03-05T05:27:51;11.90;99.80
63383;DHT22;49512;48.744;9.176;2023-03-05T05:30:17;11.80;99.80
63383;DHT22;49512;48.744;9.176;2023-03-05T05:32:42;11.80;99.80
63383;DHT22;49512;48.744;9.176;2023-03-05T05:35:08;11.80;99.80
63383;DHT22;49512;48.744;9.176;2023-03-05T05:37:34;11.80;99.70
63383;DHT22;49512;48.744;9.176;2023-03-05T05:39:59;11.80;99.70
63383;DHT22;49512;48.744;9.176;2023-03-05T05:42:25;11.80;99.70
63383;DHT22;49512;48.744;9.176;2023-03-05T05:44:50;11.80;99.70
63383;DHT22;49512;48.744;9.176;2023-03-05T05:47:16;11.90;99.70
63383;DHT22;49512;48.744;9.176;2023-03-05T05:49:42;11.80;99.70
63383;DHT22;49512;48.744;9.176;2023-03-05T05:52:07;11.80;99.70
63383;DHT22;49512;48.744;9.176;2023-03-05T05:54:33;11.80;99.70
63383;DHT22;49512;48.744;9.176;2023-03-05T05:56:59;11.90;99.70
63383;DHT22;49512;48.744;9.176;2023-03-05T05:59:24;11.90;99.70
63383;DHT22;49512;48.744;9.176;2023-03-05T06:01:50;11.80;99.70
63383;DHT22;49512;48.744;9.176;2023-03-05T06:04:15;11.80;99.70
63383;DHT22;49512;48.744;9.176;2023-03-05T06:06:41;11.90;99.70
63383;DHT22;49512;48.744;9.176;2023-03-05T06:09:06;11.80;99.70
63383;DHT22;49512;48.744;9.176;2023-03-05T06:11:32;11.80;99.70
63383;DHT22;49512;48.744;9.176;2023-03-05T06:13:58;11.80;99.70
63383;DHT22;49512;48.744;9.176;2023-03-05T06:16:24;11.90;99.70
63383;DHT22;49512;48.744;9.176;2023-03-05T06:18:50;11.80;99.60
63383;DHT22;49512;48.744;9.176;2023-03-05T06:21:16;11.80;99.60
63383;DHT22;49512;48.744;9.176;2023-03-05T06:23:43;11.80;99.60
63383;DHT22;49512;48.744;9.176;2023-03-05T06:26:09;11.90;99.60
63383;DHT22;49512;48.744;9.176;2023-03-05T06:28:35;11.80;99.60
63383;DHT22;49512;48.744;9.176;2023-03-05T06:31:05;11.80;99.60
63383;DHT22;49512;48.744;9.176;2023-03-05T06:33:31;11.80;99.60
63383;DHT22;49512;48.744;9.176;2023-03-05T06:35:57;11.80;99.60
63383;DHT22;49512;48.744;9.176;2023-03-05T06:38:23;11.80;99.50
63383;DHT22;49512;48.744;9.176;2023-03-05T06:40:49;11.80;99.50
63383;DHT22;49512;48.744;9.176;2023-03-05T06:43:14;11.80;99.50
63383;DHT22;49512;48.744;9.176;2023-03-05T06:45:40;11.80;99.50
63383;DHT22;49512;48.744;9.176;2023-03-05T06:48:05;11.80;99.50
63383;DHT22;49512;48.744;9.176;2023-03-05T06:50:33;11.80;99.50
63383;DHT22;49512;48.744;9.176;2023-03-05T06:52:59;11.80;99.50
63383;DHT22;49512;48.744;9.176;2023-03-05T06:55:24;11.80;99.40
63383;DHT22;49512;48.744;9.176;2023-03-05T06:57:50;11.80;99.40
63383;DHT22;49512;48.744;9.176;2023-03-05T07:00:15;11.80;99.40
63383;DHT22;49512;48.744;9.176;2023-03-05T07:02:41;11.80;99.40
63383;DHT22;49512;48.744;9.176;2023-03-05T07:05:06;11.80;99.40
63383;DHT22;49512;48.744;9.176;2023-03-05T07:07:32;11.80;99.40
63383;DHT22;49512;48.744;9.176;2023-03-05T07:09:58;11.80;99.40
63383;DHT22;49512;48.744;9.176;2023-03-05T07:12:24;11.80;99.40
63383;DHT22;49512;48.744;9.176;2023-03-05T07:14:49;11.80;99.30
63383;DHT22;49512;48.744;9.176;2023-03-05T07:17:15;11.80;99.30
63383;DHT22;49512;48.744;9.176;2023-03-05T07:19:40;11.80;99.30
63383;DHT22;49512;48.744;9.176;2023-03-05T07:22:06;11.80;99.30
63383;DHT22;49512;48.744;9.176;2023-03-05T07:24:32;11.80;99.30
63383;DHT22;49512;48.744;9.176;2023-03-05T07:26:57;11.80;99.30
63383;DHT22;49512;48.744;9.176;2023-03-05T07:29:23;11.80;99.30
63383;DHT22;49512;48.744;9.176;2023-03-05T07:31:49;11.80;99.30
63383;DHT22;49512;48.744;9.176;2023-03-05T07:34:14;11.80;99.30
63383;DHT22;49512;48.744;9.176;2023-03-05T07:36:40;11.80;99.30
63383;DHT22;49512;48.744;9.176;2023-03-05T07:39:06;11.80;99.30
63383;DHT22;49512;48.744;9.176;2023-03-05T07:41:32;11.70;99.20
63383;DHT22;49512;48.744;9.176;2023-03-05T07:43:57;11.80;99.20
63383;DHT22;49512;48.744;9.176;2023-03-05T07:46:25;11.80;99.20
63383;DHT22;49512;48.744;9.176;2023-03-05T07:48:51;11.80;99.20
63383;DHT22;49512;48.744;9.176;2023-03-05T07:51:19;11.80;99.20
63383;DHT22;49512;48.744;9.176;2023-03-05T07:53:45;11.80;99.20
63383;DHT22;49512;48.744;9.176;2023-03-05T07:56:11;11.80;99.20
63383;DHT22;49512;48.744;9.176;2023-03-05T07:58:37;11.80;99.20
63383;DHT22;49512;48.744;9.176;2023-03-05T08:01:03;11.80;99.30
63383;DHT22;49512;48.744;9.176;2023-03-05T08:03:28;11.80;99.30
63383;DHT22;49512;48.744;9.176;2023-03-05T08:05:54;11.80;99.30
63383;DHT22;49512;48.744;9.176;2023-03-05T08:08:19;11.80;99.30
63383;DHT22;49512;48.744;9.176;2023-03-05T08:10:45;11.80;99.30
63383;DHT22;49512;48.744;9.176;2023-03-05T08:13:10;11.80;99.20
63383;DHT22;49512;48.744;9.176;2023-03-05T08:15:36;11.80;99.20
63383;DHT22;49512;48.744;9.176;2023-03-05T08:18:02;11.80;99.10
63383;DHT22;49512;48.744;9.176;2023-03-05T08:20:27;11.80;99.10
63383;DHT22;49512;48.744;9.176;2023-03-05T08:22:53;11.80;99.10
63383;DHT22;49512;48.744;9.176;2023-03-05T08:25:18;11.80;99.10
63383;DHT22;49512;48.744;9.176;2023-03-05T08:27:44;11.80;99.00
63383;DHT22;49512;48.744;9.176;2023-03-05T08:30:11;11.80;99.00
63383;DHT22;49512;48.744;9.176;2023-03-05T08:32:37;11.80;99.00
63383;DHT22;49512;48.744;9.176;2023-03-05T08:35:02;11.80;99.00
63383;DHT22;49512;48.744;9.176;2023-03-05T08:37:29;11.80;99.00
63383;DHT22;49512;48.744;9.176;2023-03-05T08:39:54;11.80;99.00
63383;DHT22;49512;48.744;9.176;2023-03-05T08:42:21;11.80;98.90
63383;DHT22;49512;48.744;9.176;2023-03-05T08:44:46;11.80;98.90
63383;DHT22;49512;48.744;9.176;2023-03-05T08:47:12;11.80;98.80
63383;DHT22;49512;48.744;9.176;2023-03-05T08:49:37;11.80;98.80
63383;DHT22;49512;48.744;9.176;2023-03-05T08:52:03;11.80;98.70
63383;DHT22;49512;48.744;9.176;2023-03-05T08:54:29;11.80;98.70
63383;DHT22;49512;48.744;9.176;2023-03-05T08:56:54;11.80;98.70
63383;DHT22;49512;48.744;9.176;2023-03-05T08:59:20;11.80;98.60
63383;DHT22;49512;48.744;9.176;2023-03-05T09:01:45;11.80;98.60
63383;DHT22;49512;48.744;9.176;2023-03-05T09:04:10;11.80;98.70
63383;DHT22;49512;48.744;9.176;2023-03-05T09:06:36;11.80;98.80
63383;DHT22;49512;48.744;9.176;2023-03-05T09:09:05;11.80;98.70
63383;DHT22;49512;48.744;9.176;2023-03-05T09:11:32;11.80;98.90
63383;DHT22;49512;48.744;9.176;2023-03-05T09:14:03;11.80;99.20
63383;DHT22;49512;48.744;9.176;2023-03-05T09:16:29;11.80;99.80
63383;DHT22;49512;48.744;9.176;2023-03-05T09:18:55;11.80;99.80
63383;DHT22;49512;48.744;9.176;2023-03-05T09:21:20;11.80;99.90
63383;DHT22;49512;48.744;9.176;2023-03-05T09:23:46;11.80;99.90
63383;DHT22;49512;48.744;9.176;2023-03-05T09:26:12;11.80;99.90
63383;DHT22;49512;48.744;9.176;2023-03-05T09:28:40;12.20;99.90
63383;DHT22;49512;48.744;9.176;2023-03-05T09:31:07;11.80;99.90
63383;DHT22;49512;48.744;9.176;2023-03-05T09:33:33;11.80;99.90
63383;DHT22;49512;48.744;9.176;2023-03-05T09:35:59;11.80;99.90
63383;DHT22;49512;48.744;9.176;2023-03-05T09:38:25;11.90;99.90
63383;DHT22;49512;48.744;9.176;2023-03-05T09:43:43;11.80;99.90
63383;DHT22;49512;48.744;9.176;2023-03-05T09:51:24;11.60;98.40
63383;DHT22;49512;48.744;9.176;2023-03-05T09:53:52;12.60;98.30
63383;DHT22;49512;48.744;9.176;2023-03-05T09:56:28;11.40;97.10
63383;DHT22;49512;48.744;9.176;2023-03-05T09:58:55;11.40;97.00
63383;DHT22;49512;48.744;9.176;2023-03-05T10:01:44;11.40;96.10
63383;DHT22;49512;48.744;9.176;2023-03-05T10:04:10;11.20;95.20
63383;DHT22;49512;48.744;9.176;2023-03-05T10:06:48;11.50;94.50
63383;DHT22;49512;48.744;9.176;2023-03-05T10:09:40;11.50;94.40
63383;DHT22;49512;48.744;9.176;2023-03-05T10:12:09;11.50;94.40
63383;DHT22;49512;48.744;9.176;2023-03-05T10:14:37;11.60;94.40
63383;DHT22;49512;48.744;9.176;2023-03-05T10:17:17;11.60;94.50
63383;DHT22;49512;48.744;9.176;2023-03-05T10:19:51;11.60;94.60
63383;DHT22;49512;48.744;9.176;2023-03-05T10:22:24;11.60;94.80
63383;DHT22;49512;48.744;9.176;2023-03-05T10:27:27;11.60;95.10
63383;DHT22;49512;48.744;9.176;2023-03-05T10:30:00;11.60;95.50
63383;DHT22;49512;48.744;9.176;2023-03-05T10:37:41;11.60;95.50
63383;DHT22;49512;48.744;9.176;2023-03-05T10:43:02;11.60;96.00
63383;DHT22;49512;48.744;9.176;2023-03-05T10:45:39;11.60;96.20
63383;DHT22;49512;48.744;9.176;2023-03-05T10:50:41;11.60;96.40
63383;DHT22;49512;48.744;9.176;2023-03-05T10:55:34;11.60;96.60
63383;DHT22;49512;48.744;9.176;2023-03-05T10:57:59;11.60;96.20
63383;DHT22;49512;48.744;9.176;2023-03-05T11:00:26;11.60;96.30
63383;DHT22;49512;48.744;9.176;2023-03-05T11:03:08;11.60;96.30
63383;DHT22;49512;48.744;9.176;2023-03-05T11:10:51;11.60;96.50
63383;DHT22;49512;48.744;9.176;2023-03-05T11:13:26;12.50;97.10
63383;DHT22;49512;48.744;9.176;2023-03-05T11:15:59;11.50;96.90
63383;DHT22;49512;48.744;9.176;2023-03-05T11:18:25;11.60;96.60
63383;DHT22;49512;48.744;9.176;2023-03-05T11:20:51;11.60;96.70
63383;DHT22;49512;48.744;9.176;2023-03-05T11:23:20;11.60;96.70
63383;DHT22;49512;48.744;9.176;2023-03-05T11:26:01;11.60;96.70
63383;DHT22;49512;48.744;9.176;2023-03-05T11:28:31;11.60;96.80
63383;DHT22;49512;48.744;9.176;2023-03-05T11:33:25;11.60;96.80
63383;DHT22;49512;48.744;9.176;2023-03-05T11:35:52;11.60;96.80
63383;DHT22;49512;48.744;9.176;2023-03-05T11:38:19;11.60;96.80
63383;DHT22;49512;48.744;9.176;2023-03-05T11:40:44;11.60;96.90
63383;DHT22;49512;48.744;9.176;2023-03-05T11:43:14;11.50;97.20
63383;DHT22;49512;48.744;9.176;2023-03-05T11:45:40;11.60;97.70
63383;DHT22;49512;48.744;9.176;2023-03-05T11:48:20;11.60;97.90
63383;DHT22;49512;48.744;9.176;2023-03-05T11:50:50;11.60;98.00
63383;DHT22;49512;48.744;9.176;2023-03-05T11:53:24;11.60;98.30
63383;DHT22;49512;48.744;9.176;2023-03-05T11:55:53;11.60;98.90
63383;DHT22;49512;48.744;9.176;2023-03-05T11:58:23;11.60;98.60
63383;DHT22;49512;48.744;9.176;2023-03-05T12:00:50;11.60;98.60
63383;DHT22;49512;48.744;9.176;2023-03-05T12:03:18;11.60;98.90
63383;DHT22;49512;48.744;9.176;2023-03-05T12:08:34;11.60;99.10
63383;DHT22;49512;48.744;9.176;2023-03-05T12:11:05;11.60;99.30
63383;DHT22;49512;48.744;9.176;2023-03-05T12:13:39;11.60;99.60
63383;DHT22;49512;48.744;9.176;2023-03-05T12:16:17;11.60;99.90
63383;DHT22;49512;48.744;9.176;2023-03-05T12:23:53;11.70;99.90
63383;DHT22;49512;48.744;9.176;2023-03-05T12:26:52;11.60;99.90
63383;DHT22;49512;48.744;9.176;2023-03-05T12:29:04;11.60;99.90
63383;DHT22;49512;48.744;9.176;2023-03-05T12:31:50;11.50;99.90
63383;DHT22;49512;48.744;9.176;2023-03-05T12:36:59;11.50;99.50
63383;DHT22;49512;48.744;9.176;2023-03-05T12:42:51;11.50;99.80
63383;DHT22;49512;48.744;9.176;2023-03-05T12:47:44;11.40;96.70
63383;DHT22;49512;48.744;9.176;2023-03-05T12:52:51;11.40;97.10
63383;DHT22;49512;48.744;9.176;2023-03-05T12:55:18;11.40;97.10
63383;DHT22;49512;48.744;9.176;2023-03-05T12:57:47;11.40;96.60
63383;DHT22;49512;48.744;9.176;2023-03-05T13:02:45;11.40;96.70
63383;DHT22;49512;48.744;9.176;2023-03-05T13:05:19;12.00;96.80
63383;DHT22;49512;48.744;9.176;2023-03-05T13:07:46;11.40;96.00
63383;DHT22;49512;48.744;9.176;2023-03-05T13:10:26;11.40;96.00
63383;DHT22;49512;48.744;9.176;2023-03-05T13:12:52;11.40;96.20
63383;DHT22;49512;48.744;9.176;2023-03-05T13:15:18;11.30;95.70
63383;DHT22;49512;48.744;9.176;2023-03-05T13:23:17;11.50;95.10
63383;DHT22;49512;48.744;9.176;2023-03-05T13:25:45;11.50;96.10
63383;DHT22;49512;48.744;9.176;2023-03-05T13:28:20;11.50;96.70
63383;DHT22;49512;48.744;9.176;2023-03-05T13:30:52;11.50;96.70
63383;DHT22;49512;48.744;9.176;2023-03-05T13:33:21;11.50;97.00
63383;DHT22;49512;48.744;9.176;2023-03-05T13:35:47;11.60;97.20
63383;DHT22;49512;48.744;9.176;2023-03-05T13:40:39;11.50;97.40
63383;DHT22;49512;48.744;9.176;2023-03-05T13:43:09;11.50;97.40
63383;DHT22;49512;48.744;9.176;2023-03-05T13:45:36;11.60;97.70
63383;DHT22;49512;48.744;9.176;2023-03-05T13:48:03;11.60;97.80
63383;DHT22;49512;48.744;9.176;2023-03-05T13:50:30;11.50;97.70
63383;DHT22;49512;48.744;9.176;2023-03-05T13:52:56;11.60;97.70
63383;DHT22;49512;48.744;9.176;2023-03-05T13:55:37;11.60;97.90
63383;DHT22;49512;48.744;9.176;2023-03-05T13:58:03;11.60;98.00
63383;DHT22;49512;48.744;9.176;2023-03-05T14:00:33;11.40;98.10
63383;DHT22;49512;48.744;9.176;2023-03-05T14:03:00;11.60;98.30
63383;DHT22;49512;48.744;9.176;2023-03-05T14:05:31;11.60;98.40
63383;DHT22;49512;48.744;9.176;2023-03-05T14:10:53;11.60;98.40
63383;DHT22;49512;48.744;9.176;2023-03-05T14:13:28;11.60;98.50
63383;DHT22;49512;48.744;9.176;2023-03-05T14:18:34;11.60;98.60
63383;DHT22;49512;48.744;9.176;2023-03-05T14:21:04;11.60;98.60
63383;DHT22;49512;48.744;9.176;2023-03-05T14:23:42;11.60;98.70
63383;DHT22;49512;48.744;9.176;2023-03-05T14:29:12;11.60;98.60
63383;DHT22;49512;48.744;9.176;2023-03-05T14:34:36;11.60;98.70
63383;DHT22;49512;48.744;9.176;2023-03-05T14:37:29;11.60;98.70
63383;DHT22;49512;48.744;9.176;2023-03-05T14:40:00;11.60;98.70
63383;DHT22;49512;48.744;9.176;2023-03-05T14:43:03;11.60;98.70
63383;DHT22;49512;48.744;9.176;2023-03-05T14:46:07;11.60;98.80
63383;DHT22;49512;48.744;9.176;2023-03-05T14:48:15;11.60;98.70
63383;DHT22;49512;48.744;9.176;2023-03-05T14:50:42;11.60;98.70
63383;DHT22;49512;48.744;9.176;2023-03-05T14:53:15;11.60;98.90
63383;DHT22;49512;48.744;9.176;2023-03-05T14:55:42;11.60;99.50
63383;DHT22;49512;48.744;9.176;2023-03-05T14:58:13;11.60;99.90
63383;DHT22;49512;48.744;9.176;2023-03-05T15:00:39;11.60;99.90
63383;DHT22;49512;48.744;9.176;2023-03-05T15:03:04;11.60;99.90
63383;DHT22;49512;48.744;9.176;2023-03-05T15:05:30;11.60;99.90
63383;DHT22;49512;48.744;9.176;2023-03-05T15:07:56;11.60;99.90
63383;DHT22;49512;48.744;9.176;2023-03-05T15:10:22;11.60;99.90
63383;DHT22;49512;48.744;9.176;2023-03-05T15:12:49;11.60;99.90
63383;DHT22;49512;48.744;9.176;2023-03-05T15:15:16;11.60;99.90
63383;DHT22;49512;48.744;9.176;2023-03-05T15:17:43;11.70;99.90
63383;DHT22;49512;48.744;9.176;2023-03-05T15:20:19;11.70;99.90
63383;DHT22;49512;48.744;9.176;2023-03-05T15:22:44;11.70;99.90
63383;DHT22;49512;48.744;9.176;2023-03-05T15:25:10;11.70;99.90
63383;DHT22;49512;48.744;9.176;2023-03-05T15:27:41;11.70;99.90
63383;DHT22;49512;48.744;9.176;2023-03-05T15:30:17;11.70;99.90
63383;DHT22;49512;48.744;9.176;2023-03-05T15:32:45;11.70;99.90
63383;DHT22;49512;48.744;9.176;2023-03-05T15:35:10;11.70;99.90
63383;DHT22;49512;48.744;9.176;2023-03-05T15:37:36;11.70;99.90
63383;DHT22;49512;48.744;9.176;2023-03-05T15:40:01;11.70;99.90
63383;DHT22;49512;48.744;9.176;2023-03-05T15:42:27;11.70;99.90
63383;DHT22;49512;48.744;9.176;2023-03-05T15:44:53;11.70;99.90
63383;DHT22;49512;48.744;9.176;2023-03-05T15:47:18;11.70;99.90
63383;DHT22;49512;48.744;9.176;2023-03-05T15:49:44;11.70;99.90
63383;DHT22;49512;48.744;9.176;2023-03-05T15:52:09;11.70;99.90
63383;DHT22;49512;48.744;9.176;2023-03-05T15:54:35;11.70;99.90
63383;DHT22;49512;48.744;9.176;2023-03-05T15:57:01;11.80;99.90
63383;DHT22;49512;48.744;9.176;2023-03-05T15:59:27;11.70;99.90
63383;DHT22;49512;48.744;9.176;2023-03-05T16:01:53;11.70;99.90
63383;DHT22;49512;48.744;9.176;2023-03-05T16:04:18;11.70;99.90
63383;DHT22;49512;48.744;9.176;2023-03-05T16:06:44;11.70;99.90
63383;DHT22;49512;48.744;9.176;2023-03-05T16:09:11;11.70;99.90
63383;DHT22;49512;48.744;9.176;2023-03-05T16:11:37;11.80;99.90
63383;DHT22;49512;48.744;9.176;2023-03-05T16:14:04;11.80;99.90
63383;DHT22;49512;48.744;9.176;2023-03-05T16:16:32;11.80;99.90
63383;DHT22;49512;48.744;9.176;2023-03-05T16:18:58;11.80;99.90
63383;DHT22;49512;48.744;9.176;2023-03-05T16:21:23;11.80;99.90
63383;DHT22;49512;48.744;9.176;2023-03-05T16:23:49;11.80;99.90
63383;DHT22;49512;48.744;9.176;2023-03-05T16:26:14;12.00;99.90
63383;DHT22;49512;48.744;9.176;2023-03-05T16:28:40;12.00;99.90
63383;DHT22;49512;48.744;9.176;2023-03-05T16:31:05;12.00;99.90
63383;DHT22;49512;48.744;9.176;2023-03-05T16:33:31;12.00;99.90
63383;DHT22;49512;48.744;9.176;2023-03-05T16:36:15;11.90;99.90
63383;DHT22;49512;48.744;9.176;2023-03-05T16:39:18;11.90;99.90
63383;DHT22;49512;48.744;9.176;2023-03-05T16:41:45;12.00;99.90
63383;DHT22;49512;48.744;9.176;2023-03-05T16:44:11;12.10;99.90
63383;DHT22;49512;48.744;9.176;2023-03-05T16:46:37;12.10;99.90